Time;durP1;ratioP1;P1;durP2;ratioP2;P2;SDS_P1;SDS_P2;PMS_P1;PMS_P2;Temp;Humidity;BMP_temperature;BMP_pressure;BME280_temperature;BME280_humidity;BME280_pressure;Samples;Min_cycle;Max_cycle;Signal;HPM_P1;HPM_P2
2022/11/20 00:01:38;;;;;;;;;;;;;;;-1.97;100.00;101421.31;5031105;28;19990;-77
2022/11/20 00:04:04;;;;;;;;;;;;;;;-1.95;100.00;101423.94;5037115;28;19950;-77
2022/11/20 00:06:29;;;;;;;;;;;;;;;-1.93;100.00;101422.25;5046053;28;20023;-77
2022/11/20 00:08:56;;;;;;;;;;;;;;;-1.91;100.00;101411.03;5043569;28;20604;-77
2022/11/20 00:11:22;;;;;;;;;;;;;;;-1.88;100.00;101414.53;5046726;28;19929;-77
2022/11/20 00:13:49;;;;;;;;;;;;;;;-1.86;100.00;101407.66;5014865;28;19931;-77
2022/11/20 00:16:15;;;;;;;;;;;;;;;-1.83;100.00;101411.16;5046092;28;20012;-77
2022/11/20 00:18:42;;;;;;;;;;;;;;;-1.82;100.00;101402.53;5014663;28;19928;-77
2022/11/20 00:21:09;;;;;;;;;;;;;;;-1.80;100.00;101395.63;5026674;28;19944;-77
2022/11/20 00:23:35;;;;;;;;;;;;;;;-1.78;100.00;101399.09;5030441;28;19968;-77
2022/11/20 00:26:02;;;;;;;;;;;;;;;-1.76;100.00;101393.09;5020210;28;20051;-77
2022/11/20 00:28:27;;;;;;;;;;;;;;;-1.75;100.00;101392.22;5045399;28;20437;-77
2022/11/20 00:30:59;;;;;;;;;;;;;;;-1.74;100.00;101392.22;5030661;28;19932;-77
2022/11/20 00:33:25;;;;;;;;;;;;;;;-1.73;100.00;101386.22;5046307;28;19932;-77
2022/11/20 00:35:50;;;;;;;;;;;;;;;-1.72;100.00;101387.06;5036171;28;20610;-77
2022/11/20 00:38:15;;;;;;;;;;;;;;;-1.72;100.00;101387.06;5046142;28;20691;-77
2022/11/20 00:40:41;;;;;;;;;;;;;;;-1.72;100.00;101387.06;5026994;28;19932;-77
2022/11/20 00:43:06;;;;;;;;;;;;;;;-1.73;100.00;101378.41;5046110;28;20589;-77
2022/11/20 00:45:32;;;;;;;;;;;;;;;-1.74;100.00;101381.84;5026621;28;20316;-77
2022/11/20 00:47:57;;;;;;;;;;;;;;;-1.74;100.00;101386.19;5045531;28;20013;-77
2022/11/20 00:50:22;;;;;;;;;;;;;;;-1.75;100.00;101382.69;5025646;28;19939;-77
2022/11/20 00:52:47;;;;;;;;;;;;;;;-1.74;100.00;101386.19;5043267;28;19990;-77
2022/11/20 00:55:13;;;;;;;;;;;;;;;-1.76;100.00;101386.16;5045836;28;20357;-77
2022/11/20 00:57:38;;;;;;;;;;;;;;;-1.75;100.00;101379.25;5045770;28;20407;-77
2022/11/20 01:00:04;;;;;;;;;;;;;;;-1.73;100.00;101380.13;5043289;28;19935;-77
2022/11/20 01:02:29;;;;;;;;;;;;;;;-1.70;100.00;101385.38;5046025;28;19925;-77
2022/11/20 01:04:55;;;;;;;;;;;;;;;-1.68;100.00;101381.94;5045540;28;19935;-77
2022/11/20 01:07:20;;;;;;;;;;;;;;;-1.68;100.00;101386.28;5045192;28;19959;-77
2022/11/20 01:09:45;;;;;;;;;;;;;;;-1.69;100.00;101382.78;5045385;28;20410;-77
2022/11/20 01:12:11;;;;;;;;;;;;;;;-1.69;100.00;101384.53;5041455;28;19935;-77
2022/11/20 01:14:36;;;;;;;;;;;;;;;-1.68;100.00;101379.34;5024812;28;20361;-77
2022/11/20 01:17:01;;;;;;;;;;;;;;;-1.65;100.00;101382.00;5029955;28;19933;-77
2022/11/20 01:19:27;;;;;;;;;;;;;;;-1.64;100.00;101382.84;5045500;28;19928;-77
2022/11/20 01:21:53;;;;;;;;;;;;;;;-1.61;100.00;101380.31;5042602;28;20456;-77
2022/11/20 01:24:19;;;;;;;;;;;;;;;-1.61;100.00;101377.72;5029821;28;19924;-77
2022/11/20 01:26:46;;;;;;;;;;;;;;;-1.59;100.00;101376.00;5042668;28;19935;-77
2022/11/20 01:29:13;;;;;;;;;;;;;;;-1.59;100.00;101376.00;5032047;28;19925;-77
2022/11/20 01:31:38;;;;;;;;;;;;;;;-1.58;100.00;101372.53;5044452;28;20023;-77
2022/11/20 01:34:06;;;;;;;;;;;;;;;-1.57;100.00;101369.09;5018632;28;20453;-77
2022/11/20 01:36:32;;;;;;;;;;;;;;;-1.54;100.00;101368.25;5044891;28;20032;-77
2022/11/20 01:38:58;;;;;;;;;;;;;;;-1.53;100.00;101364.84;5045393;28;20038;-77
2022/11/20 01:44:09;;;;;;;;;;;;;;;-1.49;100.00;101360.56;5044861;28;19929;-77
2022/11/20 01:46:35;;;;;;;;;;;;;;;-1.50;100.00;101364.88;5044954;28;19936;-77
2022/11/20 01:49:30;;;;;;;;;;;;;;;-1.48;100.00;101351.91;5058998;28;20395;-77
2022/11/20 01:52:04;;;;;;;;;;;;;;;-1.49;100.00;101348.41;5026118;28;19925;-77
2022/11/20 01:54:36;;;;;;;;;;;;;;;-1.48;100.00;101350.16;5041385;28;19935;-77
2022/11/20 01:57:01;;;;;;;;;;;;;;;-1.49;100.00;101343.22;5044381;28;19936;-77
2022/11/20 01:59:27;;;;;;;;;;;;;;;-1.48;100.00;101347.56;5044489;28;19928;-77
2022/11/20 02:01:52;;;;;;;;;;;;;;;-1.47;100.00;101343.25;5044813;28;20009;-77
2022/11/20 02:04:18;;;;;;;;;;;;;;;-1.46;100.00;101345.00;5042442;28;20312;-77
2022/11/20 02:06:51;;;;;;;;;;;;;;;-1.48;100.00;101342.38;5041747;28;19964;-77
2022/11/20 02:09:16;;;;;;;;;;;;;;;-1.48;100.00;101341.50;5042090;28;19935;-77
2022/11/20 02:11:42;;;;;;;;;;;;;;;-1.48;100.00;101344.13;5044732;28;19928;-77
2022/11/20 02:14:07;;;;;;;;;;;;;;;-1.49;100.00;101343.22;5044179;28;20011;-77
2022/11/20 02:16:40;;;;;;;;;;;;;;;-1.51;100.00;101338.00;5044411;28;19939;-77
2022/11/20 02:19:06;;;;;;;;;;;;;;;-1.51;100.00;101337.16;5044697;28;19924;-77
2022/11/20 02:21:32;;;;;;;;;;;;;;;-1.53;100.00;101339.72;5044039;28;19924;-77
2022/11/20 02:24:03;;;;;;;;;;;;;;;-1.53;100.00;101339.72;5025271;28;19936;-77
2022/11/20 02:26:30;;;;;;;;;;;;;;;-1.55;100.00;101330.16;5044007;28;20027;-77
2022/11/20 02:28:55;;;;;;;;;;;;;;;-1.54;100.00;101322.41;5044358;28;20382;-77
2022/11/20 02:31:20;;;;;;;;;;;;;;;-1.53;100.00;101323.28;5044565;28;19979;-77
2022/11/20 02:33:46;;;;;;;;;;;;;;;-1.54;100.00;101322.41;5044012;28;20445;-77
2022/11/20 02:36:11;;;;;;;;;;;;;;;-1.55;100.00;101324.97;5043817;28;20031;-77
2022/11/20 02:38:37;;;;;;;;;;;;;;;-1.57;100.00;101330.13;5030439;28;19929;-77
2022/11/20 02:41:02;;;;;;;;;;;;;;;-1.58;100.00;101320.59;5012830;28;20307;-77
2022/11/20 02:43:28;;;;;;;;;;;;;;;-1.59;100.00;101324.06;5043619;28;20090;-77
2022/11/20 02:45:53;;;;;;;;;;;;;;;-1.57;100.00;101326.69;5033700;28;19928;-77
2022/11/20 02:48:19;;;;;;;;;;;;;;;-1.55;100.00;101330.16;5043912;28;19933;-77
2022/11/20 02:50:44;;;;;;;;;;;;;;;-1.55;100.00;101325.84;5024383;28;20357;-77
2022/11/20 02:53:09;;;;;;;;;;;;;;;-1.53;100.00;101318.09;5028584;28;19972;-77
2022/11/20 02:55:36;;;;;;;;;;;;;;;-1.53;100.00;101308.56;5014000;28;19936;-78
2022/11/20 02:58:01;;;;;;;;;;;;;;;-1.54;100.00;101309.41;5023575;28;19932;-77
2022/11/20 03:00:26;;;;;;;;;;;;;;;-1.57;100.00;101311.09;5023793;28;19932;-77
2022/11/20 03:02:52;;;;;;;;;;;;;;;-1.56;100.00;101307.66;5024775;28;19983;-77
2022/11/20 03:05:17;;;;;;;;;;;;;;;-1.58;100.00;101298.97;5023324;28;19929;-77
2022/11/20 03:07:43;;;;;;;;;;;;;;;-1.59;100.00;101298.09;5023773;28;20051;-77
2022/11/20 03:10:08;;;;;;;;;;;;;;;-1.59;100.00;101302.44;5026016;28;19978;-77
2022/11/20 03:12:34;;;;;;;;;;;;;;;-1.58;100.00;101299.81;5024303;28;19989;-77
2022/11/20 03:14:59;;;;;;;;;;;;;;;-1.57;100.00;101301.56;5023662;28;19971;-77
2022/11/20 03:17:24;;;;;;;;;;;;;;;-1.58;100.00;101292.03;5024663;28;20431;-77
2022/11/20 03:19:50;;;;;;;;;;;;;;;-1.60;100.00;101298.94;5024135;28;19929;-77
2022/11/20 03:22:15;;;;;;;;;;;;;;;-1.60;100.00;101296.34;5026040;28;19928;-77
2022/11/20 03:24:40;;;;;;;;;;;;;;;-1.59;100.00;101284.25;5023909;28;20544;-77
2022/11/20 03:27:06;;;;;;;;;;;;;;;-1.61;100.00;101276.44;5023611;28;19933;-77
2022/11/20 03:29:32;;;;;;;;;;;;;;;-1.64;100.00;101268.59;5042018;28;20520;-77
2022/11/20 03:31:57;;;;;;;;;;;;;;;-1.63;100.00;101275.53;5024326;28;20917;-77
2022/11/20 03:34:23;;;;;;;;;;;;;;;-1.63;100.00;101275.53;5023896;28;19924;-77
2022/11/20 03:36:48;;;;;;;;;;;;;;;-1.62;100.00;101277.28;5015105;28;19925;-77
2022/11/20 03:39:14;;;;;;;;;;;;;;;-1.60;100.00;101272.09;5026454;28;19932;-77
2022/11/20 03:41:40;;;;;;;;;;;;;;;-1.60;100.00;101264.28;5009740;28;19972;-77
2022/11/20 03:44:06;;;;;;;;;;;;;;;-1.60;100.00;101270.38;5015312;28;19964;-77
2022/11/20 03:46:32;;;;;;;;;;;;;;;-1.61;100.00;101263.44;5023582;28;20014;-77
2022/11/20 03:48:57;;;;;;;;;;;;;;;-1.61;100.00;101258.25;5023336;28;19937;-77
2022/11/20 03:51:24;;;;;;;;;;;;;;;-1.58;100.00;101249.63;5009791;28;19929;-77
2022/11/20 03:53:50;;;;;;;;;;;;;;;-1.58;100.00;101250.47;5009778;28;19941;-77
2022/11/20 03:56:16;;;;;;;;;;;;;;;-1.59;100.00;101243.53;5043493;28;19925;-77
2022/11/20 03:58:41;;;;;;;;;;;;;;;-1.60;100.00;101234.00;5036998;28;20485;-77
2022/11/20 04:01:08;;;;;;;;;;;;;;;-1.62;100.00;101230.53;5031012;28;19929;-77
2022/11/20 04:03:33;;;;;;;;;;;;;;;-1.65;100.00;101240.88;5046382;28;19929;-77
2022/11/20 04:06:03;;;;;;;;;;;;;;;-1.65;100.00;101248.66;5017289;28;19936;-77
2022/11/20 04:08:29;;;;;;;;;;;;;;;-1.66;100.00;101233.94;5033683;28;20344;-77
2022/11/20 04:10:55;;;;;;;;;;;;;;;-1.68;100.00;101236.50;5046138;28;20005;-77
2022/11/20 04:13:20;;;;;;;;;;;;;;;-1.70;100.00;101227.84;5047158;28;21541;-77
2022/11/20 04:15:45;;;;;;;;;;;;;;;-1.71;100.00;101227.81;5046055;28;19932;-77
2022/11/20 04:18:11;;;;;;;;;;;;;;;-1.73;100.00;101221.75;5046409;28;20402;-77
2022/11/20 04:20:36;;;;;;;;;;;;;;;-1.78;100.00;101214.75;5013804;28;19936;-77
2022/11/20 04:23:02;;;;;;;;;;;;;;;-1.80;100.00;101216.47;5047059;28;20073;-77
2022/11/20 04:25:27;;;;;;;;;;;;;;;-1.83;100.00;101211.25;5046511;28;21458;-77
2022/11/20 04:27:52;;;;;;;;;;;;;;;-1.85;100.00;101210.34;5030693;28;19924;-77
2022/11/20 04:30:18;;;;;;;;;;;;;;;-1.88;100.00;101207.75;5046497;28;19928;-77
2022/11/20 04:32:43;;;;;;;;;;;;;;;-1.92;100.00;101201.63;5012783;28;20051;-77
2022/11/20 04:35:09;;;;;;;;;;;;;;;-1.93;100.00;101201.59;5046364;28;21323;-77
2022/11/20 04:37:34;;;;;;;;;;;;;;;-1.94;100.00;101202.47;5045845;28;19956;-77
2022/11/20 04:39:59;;;;;;;;;;;;;;;-1.97;100.00;101203.31;5046050;28;20299;-77
2022/11/20 04:42:31;;;;;;;;;;;;;;;-1.99;100.00;101193.75;5046097;28;19928;-77
2022/11/20 04:44:56;;;;;;;;;;;;;;;-2.01;100.00;101190.28;5046267;28;20027;-77
2022/11/20 04:47:22;;;;;;;;;;;;;;;-2.05;100.00;101187.63;5046157;28;19929;-77
2022/11/20 04:49:47;;;;;;;;;;;;;;;-2.06;100.00;101188.47;5045881;28;20029;-77
2022/11/20 04:52:12;;;;;;;;;;;;;;;-2.08;100.00;101185.00;5046283;28;19929;-77
2022/11/20 04:54:38;;;;;;;;;;;;;;;-2.12;100.00;101188.41;5030607;28;19928;-77
2022/11/20 04:57:03;;;;;;;;;;;;;;;-2.19;100.00;101186.59;5045595;28;20445;-77
2022/11/20 04:59:29;;;;;;;;;;;;;;;-2.24;100.00;101183.09;5046179;28;19920;-77
2022/11/20 05:01:54;;;;;;;;;;;;;;;-2.27;100.00;101191.69;5045802;28;19929;-77
2022/11/20 05:04:19;;;;;;;;;;;;;;;-2.31;100.00;101189.91;5042846;28;19928;-77
2022/11/20 05:06:49;;;;;;;;;;;;;;;-2.33;100.00;101195.06;5013907;28;19929;-77
2022/11/20 05:09:15;;;;;;;;;;;;;;;-2.34;100.00;101188.13;5045542;28;20017;-77
2022/11/20 05:11:40;;;;;;;;;;;;;;;-2.38;100.00;101181.19;5025893;28;19932;-77
2022/11/20 05:14:06;;;;;;;;;;;;;;;-2.39;100.00;101184.59;5045765;28;21008;-77
2022/11/20 05:16:31;;;;;;;;;;;;;;;-2.41;100.00;101183.72;5045833;28;20062;-77
2022/11/20 05:18:56;;;;;;;;;;;;;;;-2.44;100.00;101182.78;5042277;28;20005;-77
2022/11/20 05:21:22;;;;;;;;;;;;;;;-2.45;100.00;101187.13;5045388;28;19932;-76
2022/11/20 05:23:48;;;;;;;;;;;;;;;-2.46;100.00;101180.16;5043053;28;19928;-77
2022/11/20 05:26:14;;;;;;;;;;;;;;;-2.47;100.00;101178.44;5041939;28;19986;-77
2022/11/20 05:28:40;;;;;;;;;;;;;;;-2.48;100.00;101180.19;5045022;28;19929;-77
2022/11/20 05:31:05;;;;;;;;;;;;;;;-2.49;100.00;101185.34;5035636;28;19932;-77
2022/11/20 05:33:31;;;;;;;;;;;;;;;-2.49;100.00;101187.91;5045152;28;19924;-76
2022/11/20 05:35:59;;;;;;;;;;;;;;;-2.51;100.00;101180.13;5044979;28;19928;-77
2022/11/20 05:38:24;;;;;;;;;;;;;;;-2.52;100.00;101186.16;5024582;28;19986;-77
2022/11/20 05:40:50;;;;;;;;;;;;;;;-2.48;100.00;101187.94;5044550;28;20023;-76
2022/11/20 05:43:15;;;;;;;;;;;;;;;-2.46;100.00;101182.75;5018430;28;19932;-77
2022/11/20 05:45:41;;;;;;;;;;;;;;;-2.45;100.00;101174.16;5045064;28;20388;-76
2022/11/20 05:48:06;;;;;;;;;;;;;;;-2.43;100.00;101172.44;5045022;28;20001;-76
2022/11/20 05:50:31;;;;;;;;;;;;;;;-2.43;100.00;101166.38;5044776;28;19925;-77
2022/11/20 05:53:00;;;;;;;;;;;;;;;-2.48;100.00;101164.63;5046015;28;20176;-76
2022/11/20 05:55:26;;;;;;;;;;;;;;;-2.53;100.00;101162.78;5044329;28;19928;-77
2022/11/20 05:57:52;;;;;;;;;;;;;;;-2.61;100.00;101165.28;5031116;28;19931;-77
2022/11/20 06:00:17;;;;;;;;;;;;;;;-2.66;100.00;101159.16;5044763;28;19936;-76
2022/11/20 06:02:43;;;;;;;;;;;;;;;-2.69;100.00;101170.34;5044237;28;20291;-77
2022/11/20 06:05:08;;;;;;;;;;;;;;;-2.73;100.00;101165.97;5029099;28;19945;-77
2022/11/20 06:07:34;;;;;;;;;;;;;;;-2.75;100.00;101167.66;5044677;28;20385;-76
2022/11/20 06:10:00;;;;;;;;;;;;;;;-2.78;100.00;101165.91;5043937;28;19932;-76
2022/11/20 06:12:25;;;;;;;;;;;;;;;-2.75;100.00;101165.06;5029371;28;19929;-77
2022/11/20 06:14:50;;;;;;;;;;;;;;;-2.74;100.00;101166.81;5044690;28;20061;-76
2022/11/20 06:17:16;;;;;;;;;;;;;;;-2.74;100.00;101172.00;5024451;28;19933;-77
2022/11/20 06:19:41;;;;;;;;;;;;;;;-2.74;100.00;101165.09;5043889;28;19936;-76
2022/11/20 06:22:09;;;;;;;;;;;;;;;-2.74;100.00;101167.69;5044661;28;19928;-77
2022/11/20 06:24:34;;;;;;;;;;;;;;;-2.72;100.00;101159.97;5043612;28;20457;-77
2022/11/20 06:27:00;;;;;;;;;;;;;;;-2.70;100.00;101159.94;5028502;28;19924;-77
2022/11/20 06:29:25;;;;;;;;;;;;;;;-2.67;100.00;101168.66;5029036;28;20020;-77
2022/11/20 06:31:53;;;;;;;;;;;;;;;-2.65;100.00;101160.91;5043890;28;19929;-76
2022/11/20 06:34:18;;;;;;;;;;;;;;;-2.61;100.00;101155.78;5023558;28;20409;-77
2022/11/20 06:36:44;;;;;;;;;;;;;;;-2.62;100.00;101161.81;5044187;28;19928;-77
2022/11/20 06:39:09;;;;;;;;;;;;;;;-2.60;100.00;101154.06;5043380;28;19994;-76
2022/11/20 06:41:35;;;;;;;;;;;;;;;-2.59;100.00;101158.41;5044003;28;19981;-77
2022/11/20 06:44:00;;;;;;;;;;;;;;;-2.58;100.00;101157.53;5044323;28;20342;-77
2022/11/20 06:46:26;;;;;;;;;;;;;;;-2.57;100.00;101159.28;5043945;28;20063;-77
2022/11/20 06:48:51;;;;;;;;;;;;;;;-2.56;100.00;101173.13;5044077;28;19952;-77
2022/11/20 06:51:17;;;;;;;;;;;;;;;-2.57;100.00;101169.66;5030628;28;19982;-77
2022/11/20 06:53:42;;;;;;;;;;;;;;;-2.57;100.00;101167.06;5057942;28;19931;-77
2022/11/20 06:56:08;;;;;;;;;;;;;;;-2.56;100.00;101171.38;5028082;28;19932;-77
2022/11/20 06:58:34;;;;;;;;;;;;;;;-2.57;100.00;101168.78;5044381;28;20287;-77
2022/11/20 07:01:00;;;;;;;;;;;;;;;-2.55;100.00;101164.50;5028347;28;19925;-76
2022/11/20 07:03:25;;;;;;;;;;;;;;;-2.54;100.00;101166.22;5044077;28;19931;-76
2022/11/20 07:05:50;;;;;;;;;;;;;;;-2.55;100.00;101162.78;5043648;28;19977;-77
2022/11/20 07:08:16;;;;;;;;;;;;;;;-2.55;100.00;101172.28;5044236;28;19973;-77
2022/11/20 07:10:41;;;;;;;;;;;;;;;-2.58;100.00;101170.50;5043703;28;20446;-77
2022/11/20 07:13:07;;;;;;;;;;;;;;;-2.62;100.00;101169.59;5041173;28;20012;-77
2022/11/20 07:15:32;;;;;;;;;;;;;;;-2.63;100.00;101170.44;5024598;28;19967;-77
2022/11/20 07:18:00;;;;;;;;;;;;;;;-2.67;100.00;101157.44;5043151;28;19967;-77
2022/11/20 07:20:26;;;;;;;;;;;;;;;-2.69;100.00;101153.91;5044298;28;20012;-77
2022/11/20 07:22:55;;;;;;;;;;;;;;;-2.68;100.00;101159.13;5044350;28;19928;-77
2022/11/20 07:25:20;;;;;;;;;;;;;;;-2.68;100.00;101158.28;5027986;28;19932;-77
2022/11/20 07:27:46;;;;;;;;;;;;;;;-2.69;100.00;101151.31;5043514;28;19929;-77
2022/11/20 07:30:12;;;;;;;;;;;;;;;-2.70;100.00;101149.59;5025259;28;19939;-76
2022/11/20 07:32:37;;;;;;;;;;;;;;;-2.71;100.00;101159.09;5047168;28;19928;-77
2022/11/20 07:35:02;;;;;;;;;;;;;;;-2.73;100.00;101153.88;5026873;28;19983;-77
2022/11/20 07:37:28;;;;;;;;;;;;;;;-2.73;100.00;101153.00;5046988;28;20049;-77
2022/11/20 07:39:53;;;;;;;;;;;;;;;-2.71;100.00;101151.31;5047226;28;19933;-77
2022/11/20 07:42:19;;;;;;;;;;;;;;;-2.67;100.00;101158.28;5028433;28;20018;-77
2022/11/20 07:44:44;;;;;;;;;;;;;;;-2.65;100.00;101158.31;5017201;28;19942;-77
2022/11/20 07:47:09;;;;;;;;;;;;;;;-2.66;100.00;101160.03;5027894;28;19928;-76
2022/11/20 07:49:35;;;;;;;;;;;;;;;-2.68;100.00;101159.13;5046932;28;19938;-77
2022/11/20 07:52:02;;;;;;;;;;;;;;;-2.71;100.00;101151.31;5026432;28;19990;-77
2022/11/20 07:54:28;;;;;;;;;;;;;;;-2.73;100.00;101155.59;5046569;28;20358;-77
2022/11/20 07:56:53;;;;;;;;;;;;;;;-2.73;100.00;101146.09;5061036;28;20045;-77
2022/11/20 07:59:19;;;;;;;;;;;;;;;-2.73;100.00;101156.47;5026906;28;19928;-77
2022/11/20 08:01:44;;;;;;;;;;;;;;;-2.71;100.00;101153.03;5046647;28;19964;-76
2022/11/20 08:04:09;;;;;;;;;;;;;;;-2.70;100.00;101147.00;5047103;28;19925;-76
2022/11/20 08:06:35;;;;;;;;;;;;;;;-2.69;100.00;101144.44;5060799;28;19936;-77
2022/11/20 08:09:01;;;;;;;;;;;;;;;-2.68;100.00;101138.38;5020204;28;19964;-77
2022/11/20 08:14:14;;;;;;;;;;;;;;;-2.66;100.00;101141.91;5031030;28;19933;-76
2022/11/20 08:16:46;;;;;;;;;;;;;;;-2.68;100.00;101130.63;5046098;28;19936;-76
2022/11/20 08:19:16;;;;;;;;;;;;;;;-2.67;100.00;101137.53;5043883;28;19960;-77
2022/11/20 08:21:41;;;;;;;;;;;;;;;-2.68;100.00;101133.22;5033240;28;19924;-77
2022/11/20 08:24:07;;;;;;;;;;;;;;;-2.69;100.00;101128.88;5030515;28;19924;-78
2022/11/20 08:26:33;;;;;;;;;;;;;;;-2.69;100.00;101123.69;5047147;28;19929;-78
2022/11/20 08:28:58;;;;;;;;;;;;;;;-2.73;100.00;101121.91;5045022;28;20437;-78
2022/11/20 08:31:24;;;;;;;;;;;;;;;-2.73;100.00;101122.78;5043946;28;19929;-77
2022/11/20 08:33:50;;;;;;;;;;;;;;;-2.73;100.00;101119.31;5044824;28;19935;-87
2022/11/20 08:36:15;;;;;;;;;;;;;;;-2.72;100.00;101118.47;5027057;28;19929;-78
2022/11/20 08:38:41;;;;;;;;;;;;;;;-2.70;100.00;101115.88;5046048;28;20064;-77
2022/11/20 08:41:40;;;;;;;;;;;;;;;-2.67;100.00;101124.56;5029999;28;20346;-78
2022/11/20 08:43:59;;;;;;;;;;;;;;;-2.64;100.00;101122.03;5044269;28;19925;-78
2022/11/20 08:46:25;;;;;;;;;;;;;;;-2.62;100.00;101128.09;5045867;28;19955;-78
2022/11/20 08:48:50;;;;;;;;;;;;;;;-2.60;100.00;101118.63;5032498;28;19928;-78
2022/11/20 08:51:16;;;;;;;;;;;;;;;-2.57;100.00;101114.34;5046335;28;19929;-78
2022/11/20 08:53:42;;;;;;;;;;;;;;;-2.53;100.00;101116.09;5014259;28;19935;-78
2022/11/20 08:56:07;;;;;;;;;;;;;;;-2.48;100.00;101122.25;5030057;28;19978;-78
2022/11/20 08:58:32;;;;;;;;;;;;;;;-2.44;100.00;101118.84;5046106;28;19925;-78
2022/11/20 09:00:58;;;;;;;;;;;;;;;-2.39;100.00;101119.75;5045227;28;20422;-78
2022/11/20 09:03:23;;;;;;;;;;;;;;;-2.34;100.00;101119.84;5046030;28;19925;-78
2022/11/20 09:05:49;;;;;;;;;;;;;;;-2.29;100.00;101117.28;5030083;28;19929;-78
2022/11/20 09:08:14;;;;;;;;;;;;;;;-2.25;100.00;101124.25;5045530;28;19936;-77
2022/11/20 09:10:40;;;;;;;;;;;;;;;-2.20;100.00;101113.09;5029759;28;19928;-77
2022/11/20 09:13:08;;;;;;;;;;;;;;;-2.14;100.00;101109.69;5043258;28;19935;-78
2022/11/20 09:15:34;;;;;;;;;;;;;;;-2.08;100.00;101107.16;5030621;28;19940;-78
2022/11/20 09:18:00;;;;;;;;;;;;;;;-2.01;100.00;101109.81;5046071;28;20374;-78
2022/11/20 09:20:26;;;;;;;;;;;;;;;-1.95;100.00;101108.16;5030094;28;19928;-78
2022/11/20 09:22:51;;;;;;;;;;;;;;;-1.86;100.00;101114.31;5013808;28;20368;-78
2022/11/20 09:25:17;;;;;;;;;;;;;;;-1.77;100.00;101111.81;5042679;28;19978;-78
2022/11/20 09:27:45;;;;;;;;;;;;;;;-1.70;100.00;101108.41;5059303;28;19935;-78
2022/11/20 09:30:11;;;;;;;;;;;;;;;-1.61;100.00;101102.44;5042127;28;20394;-77
2022/11/20 09:32:38;;;;;;;;;;;;;;;-1.53;100.00;101110.31;5005667;28;20019;-78
2022/11/20 09:35:04;;;;;;;;;;;;;;;-1.44;100.00;101105.19;5044453;28;20380;-79
2022/11/20 09:37:29;;;;;;;;;;;;;;;-1.38;100.00;101102.63;5057409;28;19940;-77
2022/11/20 09:39:54;;;;;;;;;;;;;;;-1.32;100.00;101104.41;4996845;28;20354;-84
2022/11/20 09:42:35;;;;;;;;;;;;;;;-1.28;100.00;101101.00;5043633;28;20045;-78
2022/11/20 09:45:20;;;;;;;;;;;;;;;-1.23;100.00;101099.31;5041851;28;19960;-78
2022/11/20 09:47:48;;;;;;;;;;;;;;;-1.17;100.00;101092.38;5045092;28;20383;-78
2022/11/20 09:50:28;;;;;;;;;;;;;;;-1.13;100.00;101099.34;5044304;28;19924;-77
2022/11/20 09:52:56;;;;;;;;;;;;;;;-1.08;100.00;101087.28;5040941;28;19924;-77
2022/11/20 09:55:22;;;;;;;;;;;;;;;-1.05;100.00;101089.03;5044453;28;20383;-77
2022/11/20 09:57:48;;;;;;;;;;;;;;;-1.03;100.00;101082.09;5028616;28;19931;-76
2022/11/20 10:00:14;;;;;;;;;;;;;;;-0.98;100.00;101094.25;5043398;28;19929;-76
2022/11/20 10:02:45;;;;;;;;;;;;;;;-0.92;100.00;101087.34;5010514;28;19928;-76
2022/11/20 10:05:10;;;;;;;;;;;;;;;-0.89;100.00;101089.97;5035766;28;19928;-76
2022/11/20 10:07:37;;;;;;;;;;;;;;;-0.87;100.00;101086.53;5037771;28;19963;-76
2022/11/20 10:10:03;;;;;;;;;;;;;;;-0.83;100.00;101085.69;5037192;28;19934;-76
2022/11/20 10:12:37;;;;;;;;;;;;;;;-0.77;100.00;101086.59;5038899;28;19929;-76
2022/11/20 10:15:03;;;;;;;;;;;;;;;-0.72;100.00;101079.66;5022149;28;19925;-76
2022/11/20 10:17:33;;;;;;;;;;;;;;;-0.67;100.00;101085.75;5036653;28;19948;-77
2022/11/20 10:20:03;;;;;;;;;;;;;;;-0.62;100.00;101080.56;5040022;28;19972;-76
2022/11/20 10:22:28;;;;;;;;;;;;;;;-0.59;100.00;101075.41;5035235;28;19929;-76
2022/11/20 10:25:00;;;;;;;;;;;;;;;-0.56;100.00;101076.28;5038272;28;19927;-77
2022/11/20 10:27:41;;;;;;;;;;;;;;;-0.52;100.00;101068.47;5024985;28;20341;-76
2022/11/20 10:30:13;;;;;;;;;;;;;;;-0.47;100.00;101072.88;5020786;28;20439;-77
2022/11/20 10:32:40;;;;;;;;;;;;;;;-0.43;100.00;101061.59;5017254;28;19924;-76
2022/11/20 10:35:25;;;;;;;;;;;;;;;-0.38;100.00;101064.19;5022066;28;20603;-76
2022/11/20 10:37:53;;;;;;;;;;;;;;;-0.29;100.00;101058.16;5009612;28;20035;-76
2022/11/20 10:40:34;;;;;;;;;;;;;;;-0.22;100.00;101043.44;5020963;28;19925;-77
2022/11/20 10:43:03;;;;;;;;;;;;;;;-0.15;100.00;101048.66;5051986;28;20254;-76
2022/11/20 10:45:28;;;;;;;;;;;;;;;-0.07;100.00;101048.69;5020986;28;20522;-76
2022/11/20 10:47:54;;;;;;;;;;;;;;;0.01;100.00;101046.09;5036685;28;19924;-76
2022/11/20 10:50:24;;;;;;;;;;;;;;;0.08;100.00;101037.44;5020527;28;19932;-76
2022/11/20 10:53:08;;;;;;;;;;;;;;;0.14;100.00;101033.97;5038824;28;19930;-76
2022/11/20 10:55:40;;;;;;;;;;;;;;;0.22;100.00;101033.97;5038174;28;20433;-77
2022/11/20 10:58:32;;;;;;;;;;;;;;;0.26;100.00;101027.88;5020312;28;19935;-76
2022/11/20 11:01:11;;;;;;;;;;;;;;;0.28;100.00;101027.88;5010555;28;19939;-76
2022/11/20 11:03:37;;;;;;;;;;;;;;;0.31;100.00;101027.88;5020338;28;19928;-77
2022/11/20 11:06:08;;;;;;;;;;;;;;;0.30;100.00;101034.84;5044584;28;20056;-76
2022/11/20 11:08:35;;;;;;;;;;;;;;;0.31;100.00;101023.53;5042746;28;19929;-76
2022/11/20 11:11:02;;;;;;;;;;;;;;;0.33;100.00;101018.34;5025498;28;20392;-76
2022/11/20 11:13:31;;;;;;;;;;;;;;;0.35;100.00;101020.09;5023629;28;19932;-76
2022/11/20 11:15:56;;;;;;;;;;;;;;;0.39;100.00;101021.81;5040345;28;21439;-75
2022/11/20 11:18:25;;;;;;;;;;;;;;;0.42;100.00;101018.31;5041928;28;19928;-75
2022/11/20 11:20:51;;;;;;;;;;;;;;;0.44;100.00;101013.13;5024041;28;19960;-76
2022/11/20 11:23:26;;;;;;;;;;;;;;;0.46;100.00;101007.06;5025041;28;19927;-75
2022/11/20 11:25:58;;;;;;;;;;;;;;;0.48;100.00;101010.50;5041397;28;19924;-76
2022/11/20 11:28:25;;;;;;;;;;;;;;;0.52;100.00;101013.97;5024742;28;19924;-75
2022/11/20 11:30:56;;;;;;;;;;;;;;;0.54;100.00;101001.81;5042416;28;19993;-76
2022/11/20 11:33:23;;;;;;;;;;;;;;;0.57;100.00;101000.94;5041076;28;19929;-75
2022/11/20 11:35:52;;;;;;;;;;;;;;;0.60;100.00;100993.13;5043453;28;19925;-74
2022/11/20 11:38:40;;;;;;;;;;;;;;;0.61;100.00;100993.13;5042253;28;20761;-75
2022/11/20 11:41:06;;;;;;;;;;;;;;;0.67;100.00;100984.44;5040656;28;20003;-75
2022/11/20 11:46:19;;;;;;;;;;;;;;;0.72;100.00;100972.28;5042039;28;19933;-75
2022/11/20 11:48:54;;;;;;;;;;;;;;;0.75;100.00;100972.25;5041032;28;20002;-75
2022/11/20 11:51:20;;;;;;;;;;;;;;;0.78;100.00;100968.78;5040638;28;20025;-75
2022/11/20 11:53:48;;;;;;;;;;;;;;;0.81;100.00;100974.84;5021532;28;19928;-76
2022/11/20 11:56:14;;;;;;;;;;;;;;;0.85;100.00;100983.53;5042040;28;20317;-76
2022/11/20 11:58:45;;;;;;;;;;;;;;;0.90;100.00;100968.75;5039443;28;19981;-76
2022/11/20 12:01:30;;;;;;;;;;;;;;;0.91;100.00;100967.84;5053001;28;20114;-77
2022/11/20 12:04:02;;;;;;;;;;;;;;;0.96;100.00;100969.59;5044085;28;19930;-77
2022/11/20 12:06:29;;;;;;;;;;;;;;;0.96;100.00;100964.38;5031491;28;19929;-76
2022/11/20 12:09:05;;;;;;;;;;;;;;;0.97;100.00;100955.69;5030083;28;20353;-76
2022/11/20 12:11:36;;;;;;;;;;;;;;;1.00;100.00;100958.25;5047077;28;19928;-76
2022/11/20 12:14:04;;;;;;;;;;;;;;;1.04;100.00;100947.81;5046321;28;19929;-77
2022/11/20 12:16:30;;;;;;;;;;;;;;;1.04;100.00;100942.59;5045602;28;19928;-77
2022/11/20 12:18:57;;;;;;;;;;;;;;;1.06;100.00;100946.09;5033223;28;19990;-77
2022/11/20 12:21:22;;;;;;;;;;;;;;;1.07;100.00;100939.09;5036641;28;19924;-76
2022/11/20 12:24:01;;;;;;;;;;;;;;;1.07;100.00;100936.50;5046567;28;20303;-76
2022/11/20 12:26:30;;;;;;;;;;;;;;;1.03;100.00;100926.97;5030923;28;19928;-76
2022/11/20 12:29:05;;;;;;;;;;;;;;;1.01;100.00;100921.75;5043416;28;20458;-77
2022/11/20 12:31:54;;;;;;;;;;;;;;;0.99;100.00;100920.03;5020599;28;19928;-76
2022/11/20 12:34:19;;;;;;;;;;;;;;;0.98;100.00;100921.75;5032911;28;19973;-76
2022/11/20 12:37:08;;;;;;;;;;;;;;;1.00;100.00;100914.81;5045983;28;19932;-77